createdAt,value
2018-02-23T00:01:51.197Z,10.33
2018-02-23T00:04:19.209Z,10.10
2018-02-23T00:06:47.110Z,17.02
2018-02-23T00:09:15.080Z,10.93
2018-02-23T00:11:43.014Z,13.68
2018-02-23T00:14:10.971Z,11.65
2018-02-23T00:16:38.928Z,11.30
2018-02-23T00:19:06.865Z,11.48
2018-02-23T00:21:34.819Z,12.75
2018-02-23T00:24:02.818Z,12.77
2018-02-23T00:26:30.767Z,11.98
2018-02-23T00:28:58.725Z,11.55
2018-02-23T00:31:26.719Z,9.27
2018-02-23T00:33:54.670Z,11.82
2018-02-23T00:36:22.608Z,10.15
2018-02-23T00:38:50.572Z,9.30
2018-02-23T00:41:18.525Z,15.60
2018-02-23T00:43:46.499Z,12.20
2018-02-23T00:46:14.463Z,12.02
2018-02-23T00:48:42.448Z,11.60
2018-02-23T00:51:10.371Z,9.05
2018-02-23T00:53:38.376Z,9.35
2018-02-23T00:56:06.289Z,9.57
2018-02-23T00:58:34.229Z,14.87
2018-02-23T01:01:02.216Z,12.25
2018-02-23T01:03:30.155Z,11.52
2018-02-23T01:05:58.120Z,11.75
2018-02-23T01:08:26.082Z,11.90
2018-02-23T01:10:54.067Z,11.68
2018-02-23T01:13:22.027Z,14.65
2018-02-23T01:15:50.067Z,12.40
2018-02-23T01:18:18.027Z,10.73
2018-02-23T01:20:46.067Z,11.70
2018-02-23T01:23:14.076Z,11.25
2018-02-23T01:25:42.046Z,14.27
2018-02-23T01:28:10.071Z,12.48
2018-02-23T01:30:38.063Z,12.50
2018-02-23T01:33:05.986Z,10.77
2018-02-23T01:35:33.957Z,10.90
2018-02-23T01:38:01.917Z,10.82
2018-02-23T01:40:29.957Z,11.55
2018-02-23T01:42:57.933Z,11.30
2018-02-23T01:45:25.901Z,10.88
2018-02-23T01:47:53.903Z,8.95
2018-02-23T01:50:21.825Z,10.68
2018-02-23T01:52:49.788Z,12.73
2018-02-23T01:55:17.726Z,8.45
2018-02-23T01:57:45.668Z,7.95
2018-02-23T02:00:13.650Z,11.25
2018-02-23T02:02:41.622Z,9.80
2018-02-23T02:05:09.559Z,11.20
2018-02-23T02:07:37.495Z,10.15
2018-02-23T02:10:05.438Z,7.85
2018-02-23T02:12:33.473Z,11.15
2018-02-23T02:15:01.425Z,11.75
2018-02-23T02:17:29.395Z,9.55
2018-02-23T02:19:57.350Z,11.32
2018-02-23T02:22:25.294Z,16.65
2018-02-23T02:24:53.255Z,10.13
2018-02-23T02:27:21.233Z,10.95
2018-02-23T02:29:49.301Z,10.30
2018-02-23T02:32:17.250Z,11.38
2018-02-23T02:34:45.220Z,9.23
2018-02-23T02:37:13.206Z,10.30
2018-02-23T02:39:41.151Z,8.65
2018-02-23T02:42:09.106Z,8.30
2018-02-23T02:44:37.066Z,10.00
2018-02-23T02:47:05.078Z,8.13
2018-02-23T02:49:33.188Z,10.20
2018-02-23T02:52:01.134Z,11.20
2018-02-23T02:54:29.199Z,11.07
2018-02-23T02:56:57.275Z,7.43
2018-02-23T02:59:25.211Z,9.43
2018-02-23T03:01:53.207Z,8.50
2018-02-23T03:04:21.229Z,8.35
2018-02-23T03:06:49.176Z,10.68
2018-02-23T03:09:17.185Z,12.80
2018-02-23T03:11:45.161Z,10.15
2018-02-23T03:14:13.121Z,7.70
2018-02-23T03:16:41.158Z,8.20
2018-02-23T03:19:09.168Z,13.20
2018-02-23T03:21:37.200Z,11.85
2018-02-23T03:24:05.140Z,9.43
2018-02-23T03:26:33.276Z,11.98
2018-02-23T03:29:01.234Z,10.40
2018-02-23T03:31:29.177Z,9.45
2018-02-23T03:33:57.143Z,7.70
2018-02-23T03:36:25.144Z,8.75
2018-02-23T03:38:53.099Z,9.30
2018-02-23T03:41:21.030Z,8.02
2018-02-23T03:43:48.993Z,9.85
2018-02-23T03:46:16.962Z,11.25
2018-02-23T03:48:45.009Z,9.63
2018-02-23T03:51:13.068Z,10.63
2018-02-23T03:53:41.013Z,11.27
2018-02-23T03:56:08.945Z,10.75
2018-02-23T03:58:37.014Z,10.10
2018-02-23T04:01:04.964Z,9.77
2018-02-23T04:03:32.906Z,10.50
2018-02-23T04:06:00.892Z,12.23
2018-02-23T04:08:28.859Z,10.95
2018-02-23T04:10:56.779Z,11.02
2018-02-23T04:13:24.722Z,10.30
2018-02-23T04:15:52.689Z,8.95
2018-02-23T04:18:20.662Z,10.23
2018-02-23T04:20:48.597Z,10.98
2018-02-23T04:23:16.533Z,8.73
2018-02-23T04:25:44.515Z,10.48
2018-02-23T04:28:12.470Z,10.18
2018-02-23T04:30:40.443Z,11.75
2018-02-23T04:33:08.385Z,10.85
2018-02-23T04:35:36.354Z,9.43
2018-02-23T04:38:04.322Z,9.75
2018-02-23T04:40:32.298Z,10.40
2018-02-23T04:43:00.250Z,13.23
2018-02-23T04:45:28.322Z,13.02
2018-02-23T04:47:56.297Z,11.48
2018-02-23T04:50:24.370Z,14.65
2018-02-23T04:52:52.301Z,13.50
2018-02-23T04:55:20.279Z,11.57
2018-02-23T04:57:48.347Z,15.65
2018-02-23T05:00:16.304Z,10.10
2018-02-23T05:02:44.298Z,14.85
2018-02-23T05:05:12.241Z,13.23
2018-02-23T05:07:40.193Z,11.38
2018-02-23T05:10:08.148Z,13.18
2018-02-23T05:12:36.161Z,11.57
2018-02-23T05:15:04.165Z,12.88
2018-02-23T05:17:32.176Z,17.85
2018-02-23T05:20:00.107Z,16.40
2018-02-23T05:22:28.108Z,14.55
2018-02-23T05:24:56.084Z,16.02
2018-02-23T05:27:24.098Z,10.20
2018-02-23T05:29:52.060Z,12.37
2018-02-23T05:32:20.089Z,14.15
2018-02-23T05:34:48.025Z,18.95
2018-02-23T05:37:16.030Z,14.35
2018-02-23T05:39:44.003Z,16.75
2018-02-23T05:42:12.047Z,15.35
2018-02-23T05:44:39.985Z,15.55
2018-02-23T05:47:07.953Z,19.55
2018-02-23T05:49:35.950Z,20.95
2018-02-23T05:52:03.977Z,19.52
2018-02-23T05:54:31.980Z,19.77
2018-02-23T05:57:00.470Z,15.98
2018-02-23T05:59:28.438Z,19.45
2018-02-23T06:01:56.398Z,15.38
2018-02-23T06:04:24.371Z,17.70
2018-02-23T06:06:52.402Z,17.58
2018-02-23T06:09:20.370Z,17.15
2018-02-23T06:11:48.442Z,19.48
2018-02-23T06:14:16.411Z,19.10
2018-02-23T06:16:44.393Z,20.60
2018-02-23T06:19:12.333Z,18.62
2018-02-23T06:21:40.366Z,15.25
2018-02-23T06:24:08.327Z,14.63
2018-02-23T06:26:36.296Z,17.67
2018-02-23T06:29:05.394Z,22.55
2018-02-23T06:31:33.520Z,22.40
2018-02-23T06:34:01.465Z,22.08
2018-02-23T06:36:29.442Z,16.70
2018-02-23T06:38:57.381Z,20.83
2018-02-23T06:41:25.354Z,18.42
2018-02-23T06:43:53.328Z,21.37
2018-02-23T06:46:21.267Z,29.77
2018-02-23T06:48:49.247Z,37.20
2018-02-23T06:51:17.179Z,30.92
2018-02-23T06:53:45.155Z,23.50
2018-02-23T06:56:13.191Z,32.05
2018-02-23T06:58:41.137Z,28.55
2018-02-23T07:01:09.156Z,25.15
2018-02-23T07:03:37.087Z,19.70
2018-02-23T07:06:05.051Z,23.62
2018-02-23T07:08:33.012Z,22.55
2018-02-23T07:11:00.975Z,24.75
2018-02-23T07:13:28.897Z,19.85
2018-02-23T07:15:56.970Z,21.05
2018-02-23T07:18:24.929Z,23.10
2018-02-23T07:20:52.858Z,21.65
2018-02-23T07:23:20.807Z,26.45
2018-02-23T07:25:48.903Z,24.25
2018-02-23T07:28:16.881Z,19.87
2018-02-23T07:30:44.818Z,25.25
2018-02-23T07:33:12.816Z,24.15
2018-02-23T07:35:40.757Z,24.33
2018-02-23T07:38:08.719Z,25.67
2018-02-23T07:40:36.725Z,21.87
2018-02-23T07:43:04.693Z,27.42
2018-02-23T07:45:32.666Z,27.00
2018-02-23T07:48:00.664Z,28.58
2018-02-23T07:50:28.664Z,26.33
2018-02-23T07:52:57.421Z,26.35
2018-02-23T07:55:25.454Z,25.77
2018-02-23T07:57:53.430Z,43.47
2018-02-23T08:00:21.400Z,127.38
2018-02-23T08:02:49.391Z,56.78
2018-02-23T08:05:18.282Z,29.85
2018-02-23T08:07:46.227Z,22.75
2018-02-23T08:10:14.200Z,24.40
2018-02-23T08:12:42.232Z,27.15
2018-02-23T08:15:10.177Z,22.30
2018-02-23T08:17:38.457Z,20.55
2018-02-23T08:20:07.194Z,25.60
2018-02-23T08:22:35.685Z,24.20
2018-02-23T08:25:03.714Z,19.73
2018-02-23T08:27:31.714Z,24.80
2018-02-23T08:29:59.685Z,21.58
2018-02-23T08:32:27.647Z,20.77
2018-02-23T08:34:55.597Z,22.62
2018-02-23T08:37:23.537Z,22.45
2018-02-23T08:39:51.697Z,23.38
2018-02-23T08:42:19.637Z,26.70
2018-02-23T08:44:47.611Z,21.92
2018-02-23T08:47:15.558Z,19.48
2018-02-23T08:49:43.723Z,19.90
2018-02-23T08:52:11.664Z,22.95
2018-02-23T08:54:39.617Z,24.00
2018-02-23T08:57:07.570Z,21.17
2018-02-23T08:59:35.554Z,19.12
2018-02-23T09:02:03.630Z,18.83
2018-02-23T09:04:31.599Z,23.30
2018-02-23T09:06:59.528Z,25.25
2018-02-23T09:09:27.531Z,18.35
2018-02-23T09:11:55.633Z,20.90
2018-02-23T09:14:23.597Z,22.37
2018-02-23T09:16:51.588Z,22.87
2018-02-23T09:19:20.321Z,20.83
2018-02-23T09:21:48.591Z,20.00
2018-02-23T09:24:16.587Z,18.50
2018-02-23T09:26:44.574Z,16.83
2018-02-23T09:29:12.551Z,18.80
2018-02-23T09:31:41.029Z,20.37
2018-02-23T09:37:09.472Z,17.07
2018-02-23T09:39:37.411Z,16.77
2018-02-23T09:42:05.524Z,15.00
2018-02-23T09:44:33.530Z,21.57
2018-02-23T09:47:01.450Z,13.40
2018-02-23T09:49:29.443Z,17.70
2018-02-23T09:51:57.539Z,15.77
2018-02-23T09:54:25.461Z,13.80
2018-02-23T09:56:53.449Z,14.57
2018-02-23T09:59:21.451Z,18.30
2018-02-23T10:01:49.368Z,14.40
2018-02-23T10:04:17.347Z,17.20
2018-02-23T10:06:45.326Z,17.37
2018-02-23T10:09:13.277Z,19.70
2018-02-23T10:11:41.443Z,19.70
2018-02-23T10:14:09.441Z,15.93
2018-02-23T10:16:37.446Z,17.13
2018-02-23T10:19:05.414Z,19.43
2018-02-23T10:21:33.351Z,16.97
2018-02-23T10:24:01.375Z,14.83
2018-02-23T10:26:29.542Z,19.40
2018-02-23T10:28:57.497Z,18.57
2018-02-23T10:31:25.487Z,17.80
2018-02-23T10:33:53.463Z,17.13
2018-02-23T10:36:21.413Z,18.30
2018-02-23T10:38:49.348Z,18.53
2018-02-23T10:41:17.293Z,18.67
2018-02-23T10:43:45.234Z,17.53
2018-02-23T10:46:13.455Z,16.47
2018-02-23T10:48:41.455Z,18.10
2018-02-23T10:51:09.398Z,20.00
2018-02-23T10:53:38.893Z,19.07
2018-02-23T10:56:06.995Z,19.50
2018-02-23T10:58:34.975Z,19.30
2018-02-23T11:01:03.010Z,17.80
2018-02-23T11:03:31.194Z,18.50
2018-02-23T11:05:59.155Z,17.73
2018-02-23T11:08:27.104Z,21.00
2018-02-23T11:10:55.248Z,16.97
2018-02-23T11:13:23.187Z,18.90
2018-02-23T11:15:51.196Z,18.13
2018-02-23T11:18:19.145Z,22.80
2018-02-23T11:20:47.104Z,17.80
2018-02-23T11:23:15.092Z,17.53
2018-02-23T11:25:43.055Z,18.90
2018-02-23T11:28:11.066Z,18.83
2018-02-23T11:30:39.078Z,18.70
2018-02-23T11:33:07.004Z,16.93
2018-02-23T11:35:35.146Z,18.73
2018-02-23T11:38:03.075Z,16.37
2018-02-23T11:40:31.116Z,18.77
2018-02-23T11:42:59.049Z,17.57
2018-02-23T11:45:27.123Z,16.00
2018-02-23T11:47:55.075Z,18.53
2018-02-23T11:50:23.055Z,22.40
2018-02-23T11:52:50.965Z,18.43
2018-02-23T11:55:18.906Z,14.83
2018-02-23T11:57:47.014Z,17.97
2018-02-23T12:00:15.042Z,18.50
2018-02-23T12:02:43.001Z,19.13
2018-02-23T12:05:10.930Z,16.80
2018-02-23T12:07:38.917Z,18.13
2018-02-23T12:10:06.961Z,14.73
2018-02-23T12:12:34.941Z,15.07
2018-02-23T12:15:02.851Z,14.40
2018-02-23T12:17:30.811Z,14.10
2018-02-23T12:19:58.786Z,20.40
2018-02-23T12:22:26.827Z,14.80
2018-02-23T12:24:54.839Z,15.20
2018-02-23T12:27:22.973Z,11.20
2018-02-23T12:29:51.018Z,10.60
2018-02-23T12:32:19.039Z,12.13
2018-02-23T12:34:47.039Z,12.63
2018-02-23T12:37:15.015Z,13.87
2018-02-23T12:39:43.107Z,12.00
2018-02-23T12:42:11.174Z,11.50
2018-02-23T12:44:39.138Z,12.20
2018-02-23T12:47:07.059Z,10.50
2018-02-23T12:49:35.094Z,10.23
2018-02-23T12:52:03.051Z,12.50
2018-02-23T12:54:30.977Z,11.77
2018-02-23T12:56:58.963Z,9.93
2018-02-23T12:59:26.911Z,11.83
2018-02-23T13:01:54.838Z,13.17
2018-02-23T13:04:22.802Z,12.10
2018-02-23T13:06:50.769Z,12.77
2018-02-23T13:09:18.742Z,11.40
2018-02-23T13:11:46.742Z,10.07
2018-02-23T13:16:49.111Z,10.27
2018-02-23T13:19:17.070Z,11.17
2018-02-23T13:21:45.140Z,8.93
2018-02-23T13:24:13.060Z,10.83
2018-02-23T13:26:41.040Z,11.90
2018-02-23T13:29:09.020Z,10.70
2018-02-23T13:31:37.006Z,20.80
2018-02-23T13:34:04.982Z,10.20
2018-02-23T13:36:32.911Z,10.40
2018-02-23T13:39:00.992Z,9.40
2018-02-23T13:41:34.686Z,9.67
2018-02-23T13:44:02.726Z,11.87
2018-02-23T13:46:30.718Z,11.70
2018-02-23T13:48:58.740Z,12.67
2018-02-23T13:51:26.807Z,11.47
2018-02-23T13:53:55.283Z,9.03
2018-02-23T13:56:23.221Z,12.70
2018-02-23T13:58:51.189Z,14.60
2018-02-23T14:01:19.135Z,11.37
2018-02-23T14:03:47.077Z,10.17
2018-02-23T14:06:15.076Z,15.47
2018-02-23T14:08:43.003Z,12.73
2018-02-23T14:11:11.014Z,13.40
2018-02-23T14:13:38.999Z,18.50
2018-02-23T14:16:06.941Z,11.80
2018-02-23T14:18:34.902Z,10.37
2018-02-23T14:21:02.842Z,12.97
2018-02-23T14:23:30.845Z,12.93
2018-02-23T14:25:58.834Z,12.33
2018-02-23T14:28:26.934Z,13.47
2018-02-23T14:30:54.926Z,11.10
2018-02-23T14:33:22.965Z,17.73
2018-02-23T14:35:50.932Z,14.37
2018-02-23T14:38:18.865Z,11.87
2018-02-23T14:40:46.805Z,11.87
2018-02-23T14:43:14.755Z,11.30
2018-02-23T14:45:42.739Z,13.07
2018-02-23T14:48:10.711Z,13.63
2018-02-23T14:50:50.401Z,16.10
2018-02-23T14:53:18.603Z,11.30
2018-02-23T14:55:46.557Z,11.13
2018-02-23T14:58:14.510Z,11.50
2018-02-23T15:00:42.632Z,11.80
2018-02-23T15:03:10.811Z,16.80
2018-02-23T15:05:38.781Z,14.60
2018-02-23T15:08:06.886Z,9.77
2018-02-23T15:10:34.839Z,10.03
2018-02-23T15:13:03.717Z,11.80
2018-02-23T15:15:31.643Z,11.47
2018-02-23T15:17:59.933Z,10.10
2018-02-23T15:20:27.849Z,12.50
2018-02-23T15:22:55.983Z,9.77
2018-02-23T15:25:23.905Z,8.00
2018-02-23T15:27:51.895Z,8.60
2018-02-23T15:30:34.163Z,8.87
2018-02-23T15:33:02.578Z,7.07
2018-02-23T15:35:30.649Z,7.30
2018-02-23T15:37:59.413Z,7.67
2018-02-23T15:40:27.361Z,8.20
2018-02-23T15:42:55.592Z,8.80
2018-02-23T15:45:24.456Z,6.67
2018-02-23T15:47:58.753Z,8.83
2018-02-23T15:50:26.743Z,7.53
2018-02-23T15:52:54.790Z,9.10
2018-02-23T15:55:22.743Z,9.73
2018-02-23T15:58:04.540Z,8.17
2018-02-23T16:00:32.458Z,9.27
2018-02-23T16:03:00.389Z,8.32
2018-02-23T16:05:28.461Z,7.77
2018-02-23T16:07:56.420Z,8.07
2018-02-23T16:10:24.520Z,7.90
2018-02-23T16:12:52.513Z,8.20
2018-02-23T16:15:20.490Z,9.80
2018-02-23T16:17:48.520Z,10.73
2018-02-23T16:20:16.574Z,8.20
2018-02-23T16:22:44.605Z,11.80
2018-02-23T16:25:12.923Z,12.50
2018-02-23T16:27:40.884Z,10.43
2018-02-23T16:30:08.873Z,11.50
2018-02-23T16:32:36.837Z,8.97
2018-02-23T16:35:04.902Z,10.23
2018-02-23T16:37:33.485Z,9.77
2018-02-23T16:40:01.576Z,7.60
2018-02-23T16:42:29.579Z,271.77
2018-02-23T16:44:57.564Z,119.07
2018-02-23T16:47:25.571Z,108.73
2018-02-23T16:49:53.635Z,62.23
2018-02-23T16:52:21.611Z,13.20
2018-02-23T16:54:49.639Z,13.10
2018-02-23T16:57:18.032Z,8.67
2018-02-23T16:59:46.000Z,10.30
2018-02-23T17:02:14.328Z,11.27
2018-02-23T17:04:42.266Z,11.93
2018-02-23T17:07:10.210Z,11.80
2018-02-23T17:09:38.264Z,13.63
2018-02-23T17:12:06.211Z,16.50
2018-02-23T17:14:34.211Z,14.30
2018-02-23T17:17:02.282Z,17.87
2018-02-23T17:19:30.337Z,18.43
2018-02-23T17:21:58.288Z,16.47
2018-02-23T17:24:26.202Z,14.00
2018-02-23T17:26:54.153Z,14.80
2018-02-23T17:29:22.135Z,13.40
2018-02-23T17:31:50.152Z,13.90
2018-02-23T17:34:18.157Z,13.03
2018-02-23T17:36:46.204Z,12.23
2018-02-23T17:39:14.173Z,11.10
2018-02-23T17:41:42.146Z,11.98
2018-02-23T17:44:10.146Z,16.27
2018-02-23T17:46:38.168Z,12.37
2018-02-23T17:49:06.155Z,12.00
2018-02-23T17:51:34.123Z,10.60
2018-02-23T17:54:02.355Z,13.23
2018-02-23T17:56:30.318Z,16.10
2018-02-23T17:58:58.721Z,16.20
2018-02-23T18:01:26.719Z,14.27
2018-02-23T18:03:54.660Z,12.02
2018-02-23T18:06:22.595Z,14.00
2018-02-23T18:08:50.507Z,13.20
2018-02-23T18:11:18.433Z,12.23
2018-02-23T18:13:46.357Z,15.98
2018-02-23T18:16:14.775Z,15.40
2018-02-23T18:18:42.692Z,11.50
2018-02-23T18:21:10.655Z,12.97
2018-02-23T18:23:38.591Z,12.60
2018-02-23T18:26:06.550Z,13.95
2018-02-23T18:28:34.539Z,16.43
2018-02-23T18:31:02.501Z,13.52
2018-02-23T18:33:30.468Z,15.43
2018-02-23T18:35:58.711Z,14.80
2018-02-23T18:38:26.729Z,15.07
2018-02-23T18:40:55.079Z,13.45
2018-02-23T18:43:23.034Z,15.40
2018-02-23T18:45:50.976Z,18.52
2018-02-23T18:48:18.908Z,14.43
2018-02-23T18:50:46.846Z,16.30
2018-02-23T18:53:14.799Z,13.30
2018-02-23T18:55:42.746Z,17.02
2018-02-23T18:58:10.681Z,17.33
2018-02-23T19:00:38.637Z,13.45
2018-02-23T19:03:06.654Z,17.12
2018-02-23T19:05:34.641Z,19.37
2018-02-23T19:08:02.619Z,16.92
2018-02-23T19:10:30.615Z,15.32
2018-02-23T19:12:58.658Z,16.05
2018-02-23T19:15:26.665Z,15.20
2018-02-23T19:17:54.645Z,17.92
2018-02-23T19:20:22.614Z,16.98
2018-02-23T19:22:50.562Z,16.35
2018-02-23T19:25:18.598Z,14.95
2018-02-23T19:27:46.661Z,15.87
2018-02-23T19:30:14.652Z,19.77
2018-02-23T19:32:42.695Z,18.62
2018-02-23T19:35:10.664Z,13.70
2018-02-23T19:37:38.656Z,21.02
2018-02-23T19:40:07.686Z,20.85
2018-02-23T19:42:35.703Z,17.20
2018-02-23T19:45:03.670Z,15.00
2018-02-23T19:47:31.646Z,16.33
2018-02-23T19:49:59.612Z,15.98
2018-02-23T19:52:27.650Z,15.65
2018-02-23T19:54:55.633Z,13.48
2018-02-23T19:57:23.656Z,19.12
2018-02-23T19:59:52.548Z,13.57
2018-02-23T20:02:20.499Z,13.35
2018-02-23T20:04:48.485Z,16.12
2018-02-23T20:07:16.492Z,15.23
2018-02-23T20:09:44.440Z,14.05
2018-02-23T20:12:12.625Z,17.77
2018-02-23T20:14:40.607Z,14.45
2018-02-23T20:17:08.590Z,11.87
2018-02-23T20:19:36.583Z,12.07
2018-02-23T20:22:04.613Z,12.20
2018-02-23T20:24:32.764Z,14.60
2018-02-23T20:27:00.731Z,11.63
2018-02-23T20:29:28.717Z,13.50
2018-02-23T20:31:56.673Z,10.00
2018-02-23T20:34:24.616Z,12.02
2018-02-23T20:36:52.653Z,11.03
2018-02-23T20:39:20.781Z,128.35
2018-02-23T20:41:49.332Z,119.00
2018-02-23T20:44:17.310Z,126.85
2018-02-23T20:46:45.331Z,130.20
2018-02-23T20:49:13.368Z,15.88
2018-02-23T20:51:41.417Z,9.77
2018-02-23T20:54:09.440Z,13.03
2018-02-23T20:56:37.450Z,12.93
2018-02-23T20:59:05.403Z,15.40
2018-02-23T21:01:33.400Z,19.50
2018-02-23T21:04:01.438Z,13.70
2018-02-23T21:06:29.872Z,11.37
2018-02-23T21:08:57.873Z,12.30
2018-02-23T21:14:00.153Z,15.47
2018-02-23T21:16:28.207Z,15.20
2018-02-23T21:18:56.162Z,17.67
2018-02-23T21:21:24.094Z,14.57
2018-02-23T21:23:52.144Z,13.43
2018-02-23T21:26:20.181Z,15.70
2018-02-23T21:28:48.130Z,19.23
2018-02-23T21:31:16.118Z,15.77
2018-02-23T21:33:44.055Z,14.63
2018-02-23T21:36:12.012Z,14.75
2018-02-23T21:38:41.308Z,15.23
2018-02-23T21:41:09.222Z,15.90
2018-02-23T21:43:37.510Z,12.57
2018-02-23T21:46:05.490Z,18.30
2018-02-23T21:48:33.698Z,12.68
2018-02-23T21:51:02.063Z,12.00
2018-02-23T21:53:29.982Z,16.10
2018-02-23T21:55:57.970Z,10.77
2018-02-23T21:58:25.962Z,15.10
2018-02-23T22:00:53.874Z,13.30
2018-02-23T22:03:21.856Z,12.70
2018-02-23T22:05:49.799Z,15.27
2018-02-23T22:08:17.746Z,16.93
2018-02-23T22:10:45.715Z,14.03
2018-02-23T22:13:13.654Z,14.73
2018-02-23T22:15:41.601Z,16.00
2018-02-23T22:18:09.543Z,15.27
2018-02-23T22:20:37.509Z,13.93
2018-02-23T22:23:05.562Z,15.03
2018-02-23T22:25:33.542Z,15.33
2018-02-23T22:28:01.519Z,11.57
2018-02-23T22:30:29.446Z,14.87
2018-02-23T22:32:57.449Z,12.00
2018-02-23T22:35:25.419Z,16.83
2018-02-23T22:37:53.387Z,15.50
2018-02-23T22:40:21.350Z,14.23
2018-02-23T22:42:49.367Z,16.10
2018-02-23T22:45:17.326Z,17.55
2018-02-23T22:47:45.301Z,18.03
2018-02-23T22:50:13.244Z,15.20
2018-02-23T22:52:41.197Z,13.00
2018-02-23T22:55:09.183Z,12.33
2018-02-23T22:57:37.438Z,99.87
2018-02-23T23:00:05.522Z,84.60
2018-02-23T23:02:33.451Z,128.27
2018-02-23T23:05:01.372Z,35.17
2018-02-23T23:07:29.310Z,15.93
2018-02-23T23:09:57.264Z,11.70
2018-02-23T23:12:25.266Z,11.70
2018-02-23T23:14:53.392Z,14.43
2018-02-23T23:17:21.416Z,13.53
2018-02-23T23:19:49.389Z,19.70
2018-02-23T23:22:17.356Z,27.93
2018-02-23T23:24:45.282Z,27.93
2018-02-23T23:27:13.326Z,46.90
2018-02-23T23:29:41.319Z,43.27
2018-02-23T23:32:09.308Z,79.60
2018-02-23T23:34:37.272Z,62.13
2018-02-23T23:37:05.222Z,57.47
2018-02-23T23:39:33.304Z,36.67
2018-02-23T23:42:01.336Z,55.37
2018-02-23T23:44:29.238Z,82.40
2018-02-23T23:46:57.206Z,70.53
2018-02-23T23:49:25.183Z,83.50
2018-02-23T23:51:53.268Z,50.20
2018-02-23T23:54:21.367Z,39.17
2018-02-23T23:56:49.329Z,33.40
2018-02-23T23:59:17.330Z,13.30
